sensor_id;sensor_type;location;lat;lon;timestamp;temperature;humidity
27544;DHT22;17996;51.056;3.656;2023-01-26T00:00:50;3.00;99.90
27544;DHT22;17996;51.056;3.656;2023-01-26T00:03:16;3.20;99.90
27544;DHT22;17996;51.056;3.656;2023-01-26T00:05:42;3.10;99.90
27544;DHT22;17996;51.056;3.656;2023-01-26T00:08:08;3.10;99.90
27544;DHT22;17996;51.056;3.656;2023-01-26T00:10:35;3.10;99.90
27544;DHT22;17996;51.056;3.656;2023-01-26T00:13:02;3.10;99.90
27544;DHT22;17996;51.056;3.656;2023-01-26T00:15:28;3.10;99.90
27544;DHT22;17996;51.056;3.656;2023-01-26T00:17:54;3.20;99.90
27544;DHT22;17996;51.056;3.656;2023-01-26T00:20:19;3.10;99.90
27544;DHT22;17996;51.056;3.656;2023-01-26T00:22:45;3.10;99.90
27544;DHT22;17996;51.056;3.656;2023-01-26T00:25:11;3.10;99.90
27544;DHT22;17996;51.056;3.656;2023-01-26T00:27:36;3.30;99.90
27544;DHT22;17996;51.056;3.656;2023-01-26T00:30:02;3.10;99.90
27544;DHT22;17996;51.056;3.656;2023-01-26T00:32:28;3.10;99.90
27544;DHT22;17996;51.056;3.656;2023-01-26T00:34:54;3.20;99.90
27544;DHT22;17996;51.056;3.656;2023-01-26T00:37:19;3.20;99.90
27544;DHT22;17996;51.056;3.656;2023-01-26T00:39:45;3.40;99.90
27544;DHT22;17996;51.056;3.656;2023-01-26T00:42:11;3.20;99.90
27544;DHT22;17996;51.056;3.656;2023-01-26T00:44:40;3.20;99.90
27544;DHT22;17996;51.056;3.656;2023-01-26T00:47:08;3.30;99.90
27544;DHT22;17996;51.056;3.656;2023-01-26T00:49:34;3.30;99.90
27544;DHT22;17996;51.056;3.656;2023-01-26T00:52:00;3.30;99.90
27544;DHT22;17996;51.056;3.656;2023-01-26T00:54:27;3.20;99.90
27544;DHT22;17996;51.056;3.656;2023-01-26T00:56:53;3.30;99.90
27544;DHT22;17996;51.056;3.656;2023-01-26T00:59:19;3.30;99.90
27544;DHT22;17996;51.056;3.656;2023-01-26T01:01:45;3.30;99.90
27544;DHT22;17996;51.056;3.656;2023-01-26T01:04:11;3.30;99.90
27544;DHT22;17996;51.056;3.656;2023-01-26T01:06:37;3.40;99.90
27544;DHT22;17996;51.056;3.656;2023-01-26T01:09:03;3.30;99.90
27544;DHT22;17996;51.056;3.656;2023-01-26T01:11:29;3.30;99.90
27544;DHT22;17996;51.056;3.656;2023-01-26T01:13:54;3.30;99.90
27544;DHT22;17996;51.056;3.656;2023-01-26T01:16:20;3.30;99.90
27544;DHT22;17996;51.056;3.656;2023-01-26T01:18:46;3.30;99.90
27544;DHT22;17996;51.056;3.656;2023-01-26T01:21:13;3.20;99.90
27544;DHT22;17996;51.056;3.656;2023-01-26T01:23:40;3.30;99.90
27544;DHT22;17996;51.056;3.656;2023-01-26T01:26:07;3.30;99.90
27544;DHT22;17996;51.056;3.656;2023-01-26T01:28:35;3.30;99.90
27544;DHT22;17996;51.056;3.656;2023-01-26T01:31:11;3.30;99.90
27544;DHT22;17996;51.056;3.656;2023-01-26T01:33:38;3.30;99.90
27544;DHT22;17996;51.056;3.656;2023-01-26T01:36:06;3.30;99.90
27544;DHT22;17996;51.056;3.656;2023-01-26T01:38:32;3.30;99.90
27544;DHT22;17996;51.056;3.656;2023-01-26T01:40:58;3.30;99.90
27544;DHT22;17996;51.056;3.656;2023-01-26T01:43:25;3.50;99.90
27544;DHT22;17996;51.056;3.656;2023-01-26T01:45:52;3.30;99.90
27544;DHT22;17996;51.056;3.656;2023-01-26T01:48:27;3.30;99.90
27544;DHT22;17996;51.056;3.656;2023-01-26T01:50:58;3.40;99.90
27544;DHT22;17996;51.056;3.656;2023-01-26T01:53:30;3.30;99.90
27544;DHT22;17996;51.056;3.656;2023-01-26T01:56:01;3.30;99.90
27544;DHT22;17996;51.056;3.656;2023-01-26T01:58:29;3.40;99.90
27544;DHT22;17996;51.056;3.656;2023-01-26T02:00:56;3.30;99.90
27544;DHT22;17996;51.056;3.656;2023-01-26T02:03:23;3.50;99.90
27544;DHT22;17996;51.056;3.656;2023-01-26T02:06:11;3.30;99.90
27544;DHT22;17996;51.056;3.656;2023-01-26T02:08:44;3.40;99.90
27544;DHT22;17996;51.056;3.656;2023-01-26T02:13:51;3.30;99.90
27544;DHT22;17996;51.056;3.656;2023-01-26T02:16:17;3.30;99.90
27544;DHT22;17996;51.056;3.656;2023-01-26T02:18:44;3.30;99.90
27544;DHT22;17996;51.056;3.656;2023-01-26T02:21:13;3.30;99.90
27544;DHT22;17996;51.056;3.656;2023-01-26T02:23:49;3.40;99.90
27544;DHT22;17996;51.056;3.656;2023-01-26T02:26:22;3.40;99.90
27544;DHT22;17996;51.056;3.656;2023-01-26T02:28:48;3.40;99.90
27544;DHT22;17996;51.056;3.656;2023-01-26T02:31:14;3.40;99.90
27544;DHT22;17996;51.056;3.656;2023-01-26T02:33:41;3.40;99.90
27544;DHT22;17996;51.056;3.656;2023-01-26T02:36:16;3.40;99.90
27544;DHT22;17996;51.056;3.656;2023-01-26T02:38:44;3.40;99.90
27544;DHT22;17996;51.056;3.656;2023-01-26T02:41:14;3.50;99.90
27544;DHT22;17996;51.056;3.656;2023-01-26T02:44:03;3.50;99.90
27544;DHT22;17996;51.056;3.656;2023-01-26T02:46:29;3.50;99.90
27544;DHT22;17996;51.056;3.656;2023-01-26T02:48:55;3.50;99.90
27544;DHT22;17996;51.056;3.656;2023-01-26T02:51:40;3.50;99.90
27544;DHT22;17996;51.056;3.656;2023-01-26T02:54:05;3.50;99.90
27544;DHT22;17996;51.056;3.656;2023-01-26T02:56:31;3.50;99.90
27544;DHT22;17996;51.056;3.656;2023-01-26T02:58:56;3.50;99.90
27544;DHT22;17996;51.056;3.656;2023-01-26T03:01:22;3.50;99.90
27544;DHT22;17996;51.056;3.656;2023-01-26T03:03:48;3.50;99.90
27544;DHT22;17996;51.056;3.656;2023-01-26T03:06:14;3.50;99.90
27544;DHT22;17996;51.056;3.656;2023-01-26T03:08:40;3.60;99.90
27544;DHT22;17996;51.056;3.656;2023-01-26T03:11:07;3.50;99.90
27544;DHT22;17996;51.056;3.656;2023-01-26T03:13:33;3.60;99.90
27544;DHT22;17996;51.056;3.656;2023-01-26T03:15:59;3.60;99.90
27544;DHT22;17996;51.056;3.656;2023-01-26T03:18:33;3.60;99.90
27544;DHT22;17996;51.056;3.656;2023-01-26T03:21:18;3.60;99.90
27544;DHT22;17996;51.056;3.656;2023-01-26T03:24:02;3.60;99.90
27544;DHT22;17996;51.056;3.656;2023-01-26T03:26:46;3.60;99.90
27544;DHT22;17996;51.056;3.656;2023-01-26T03:29:30;3.60;99.90
27544;DHT22;17996;51.056;3.656;2023-01-26T03:31:56;3.60;99.90
27544;DHT22;17996;51.056;3.656;2023-01-26T03:34:23;3.60;99.90
27544;DHT22;17996;51.056;3.656;2023-01-26T03:36:49;3.60;99.90
27544;DHT22;17996;51.056;3.656;2023-01-26T03:39:15;3.60;99.90
27544;DHT22;17996;51.056;3.656;2023-01-26T03:41:59;3.60;99.90
27544;DHT22;17996;51.056;3.656;2023-01-26T03:44:44;3.60;99.90
27544;DHT22;17996;51.056;3.656;2023-01-26T03:47:30;3.70;99.90
27544;DHT22;17996;51.056;3.656;2023-01-26T03:50:15;3.80;99.90
27544;DHT22;17996;51.056;3.656;2023-01-26T03:53:00;3.70;99.90
27544;DHT22;17996;51.056;3.656;2023-01-26T03:55:44;3.70;99.90
27544;DHT22;17996;51.056;3.656;2023-01-26T03:58:28;3.60;99.90
27544;DHT22;17996;51.056;3.656;2023-01-26T04:00:55;3.70;99.90
27544;DHT22;17996;51.056;3.656;2023-01-26T04:03:21;3.70;99.90
27544;DHT22;17996;51.056;3.656;2023-01-26T04:06:05;3.70;99.90
27544;DHT22;17996;51.056;3.656;2023-01-26T04:08:49;3.70;99.90
27544;DHT22;17996;51.056;3.656;2023-01-26T04:11:15;3.60;99.90
27544;DHT22;17996;51.056;3.656;2023-01-26T04:13:40;3.60;99.90
27544;DHT22;17996;51.056;3.656;2023-01-26T04:16:24;3.70;99.90
27544;DHT22;17996;51.056;3.656;2023-01-26T04:19:08;3.60;99.90
27544;DHT22;17996;51.056;3.656;2023-01-26T04:21:52;3.70;99.90
27544;DHT22;17996;51.056;3.656;2023-01-26T04:24:18;3.70;99.90
27544;DHT22;17996;51.056;3.656;2023-01-26T04:26:47;3.60;99.90
27544;DHT22;17996;51.056;3.656;2023-01-26T04:29:14;3.60;99.90
27544;DHT22;17996;51.056;3.656;2023-01-26T04:31:40;3.70;99.90
27544;DHT22;17996;51.056;3.656;2023-01-26T04:34:10;3.70;99.90
27544;DHT22;17996;51.056;3.656;2023-01-26T04:36:36;3.60;99.90
27544;DHT22;17996;51.056;3.656;2023-01-26T04:39:01;3.60;99.90
27544;DHT22;17996;51.056;3.656;2023-01-26T04:41:31;3.80;99.90
27544;DHT22;17996;51.056;3.656;2023-01-26T04:43:57;3.60;99.90
27544;DHT22;17996;51.056;3.656;2023-01-26T04:46:23;3.70;99.90
27544;DHT22;17996;51.056;3.656;2023-01-26T04:48:49;3.60;99.90
27544;DHT22;17996;51.056;3.656;2023-01-26T04:51:17;3.70;99.90
27544;DHT22;17996;51.056;3.656;2023-01-26T04:53:44;3.60;99.90
27544;DHT22;17996;51.056;3.656;2023-01-26T04:58:42;3.70;99.90
27544;DHT22;17996;51.056;3.656;2023-01-26T05:01:08;3.60;99.90
27544;DHT22;17996;51.056;3.656;2023-01-26T05:03:33;3.60;99.90
27544;DHT22;17996;51.056;3.656;2023-01-26T05:05:59;3.60;99.90
27544;DHT22;17996;51.056;3.656;2023-01-26T05:08:25;3.60;99.90
27544;DHT22;17996;51.056;3.656;2023-01-26T05:10:50;3.70;99.90
27544;DHT22;17996;51.056;3.656;2023-01-26T05:13:17;3.60;99.90
27544;DHT22;17996;51.056;3.656;2023-01-26T05:15:42;3.60;99.90
27544;DHT22;17996;51.056;3.656;2023-01-26T05:18:09;3.60;99.90
27544;DHT22;17996;51.056;3.656;2023-01-26T05:20:35;3.60;99.90
27544;DHT22;17996;51.056;3.656;2023-01-26T05:23:01;3.60;99.90
27544;DHT22;17996;51.056;3.656;2023-01-26T05:25:27;3.70;99.90
27544;DHT22;17996;51.056;3.656;2023-01-26T05:27:52;3.60;99.90
27544;DHT22;17996;51.056;3.656;2023-01-26T05:30:18;3.60;99.90
27544;DHT22;17996;51.056;3.656;2023-01-26T05:32:44;3.70;99.90
27544;DHT22;17996;51.056;3.656;2023-01-26T05:35:10;3.60;99.90
27544;DHT22;17996;51.056;3.656;2023-01-26T05:37:36;3.70;99.90
27544;DHT22;17996;51.056;3.656;2023-01-26T05:40:03;3.70;99.90
27544;DHT22;17996;51.056;3.656;2023-01-26T05:42:28;3.70;99.90
27544;DHT22;17996;51.056;3.656;2023-01-26T05:44:54;3.70;99.90
27544;DHT22;17996;51.056;3.656;2023-01-26T05:47:20;3.70;99.90
27544;DHT22;17996;51.056;3.656;2023-01-26T05:49:46;3.70;99.90
27544;DHT22;17996;51.056;3.656;2023-01-26T05:52:14;3.70;99.90
27544;DHT22;17996;51.056;3.656;2023-01-26T05:54:40;3.80;99.90
27544;DHT22;17996;51.056;3.656;2023-01-26T05:57:07;3.80;99.90
27544;DHT22;17996;51.056;3.656;2023-01-26T05:59:33;3.80;99.90
27544;DHT22;17996;51.056;3.656;2023-01-26T06:01:58;3.90;99.90
27544;DHT22;17996;51.056;3.656;2023-01-26T06:04:25;3.80;99.90
27544;DHT22;17996;51.056;3.656;2023-01-26T06:06:55;3.80;99.90
27544;DHT22;17996;51.056;3.656;2023-01-26T06:09:21;3.80;99.90
27544;DHT22;17996;51.056;3.656;2023-01-26T06:11:47;3.80;99.90
27544;DHT22;17996;51.056;3.656;2023-01-26T06:14:12;3.80;99.90
27544;DHT22;17996;51.056;3.656;2023-01-26T06:16:38;3.80;99.90
27544;DHT22;17996;51.056;3.656;2023-01-26T06:19:04;3.80;99.90
27544;DHT22;17996;51.056;3.656;2023-01-26T06:21:30;3.80;99.90
27544;DHT22;17996;51.056;3.656;2023-01-26T06:23:56;3.90;99.90
27544;DHT22;17996;51.056;3.656;2023-01-26T06:26:21;3.90;99.90
27544;DHT22;17996;51.056;3.656;2023-01-26T06:28:49;3.90;99.90
27544;DHT22;17996;51.056;3.656;2023-01-26T06:31:15;4.10;99.90
27544;DHT22;17996;51.056;3.656;2023-01-26T06:33:41;3.90;99.90
27544;DHT22;17996;51.056;3.656;2023-01-26T06:36:09;3.90;99.90
27544;DHT22;17996;51.056;3.656;2023-01-26T06:38:35;3.90;99.90
27544;DHT22;17996;51.056;3.656;2023-01-26T06:41:03;3.90;99.90
27544;DHT22;17996;51.056;3.656;2023-01-26T06:43:31;3.90;99.90
27544;DHT22;17996;51.056;3.656;2023-01-26T06:45:57;3.70;99.90
27544;DHT22;17996;51.056;3.656;2023-01-26T06:48:27;3.80;99.90
27544;DHT22;17996;51.056;3.656;2023-01-26T06:51:04;3.90;99.90
27544;DHT22;17996;51.056;3.656;2023-01-26T06:53:56;3.70;99.90
27544;DHT22;17996;51.056;3.656;2023-01-26T06:56:23;3.80;99.90
27544;DHT22;17996;51.056;3.656;2023-01-26T06:58:50;3.80;99.90
27544;DHT22;17996;51.056;3.656;2023-01-26T07:01:17;3.80;99.90
27544;DHT22;17996;51.056;3.656;2023-01-26T07:03:44;3.90;99.90
27544;DHT22;17996;51.056;3.656;2023-01-26T07:06:09;3.90;99.90
27544;DHT22;17996;51.056;3.656;2023-01-26T07:08:38;3.80;99.90
27544;DHT22;17996;51.056;3.656;2023-01-26T07:11:05;3.90;99.90
27544;DHT22;17996;51.056;3.656;2023-01-26T07:13:31;3.90;99.90
27544;DHT22;17996;51.056;3.656;2023-01-26T07:16:05;3.90;99.90
27544;DHT22;17996;51.056;3.656;2023-01-26T07:18:31;3.90;99.90
27544;DHT22;17996;51.056;3.656;2023-01-26T07:21:01;3.90;99.90
27544;DHT22;17996;51.056;3.656;2023-01-26T07:23:27;4.00;99.90
27544;DHT22;17996;51.056;3.656;2023-01-26T07:25:53;3.80;99.90
27544;DHT22;17996;51.056;3.656;2023-01-26T07:28:19;3.80;99.90
27544;DHT22;17996;51.056;3.656;2023-01-26T07:30:44;3.80;99.90
27544;DHT22;17996;51.056;3.656;2023-01-26T07:33:10;3.70;99.90
27544;DHT22;17996;51.056;3.656;2023-01-26T07:35:36;3.60;99.90
27544;DHT22;17996;51.056;3.656;2023-01-26T07:38:05;3.70;99.90
27544;DHT22;17996;51.056;3.656;2023-01-26T07:40:30;3.70;99.90
27544;DHT22;17996;51.056;3.656;2023-01-26T07:42:56;3.70;99.90
27544;DHT22;17996;51.056;3.656;2023-01-26T07:45:23;3.90;99.90
27544;DHT22;17996;51.056;3.656;2023-01-26T07:47:49;3.70;99.90
27544;DHT22;17996;51.056;3.656;2023-01-26T07:50:14;3.80;99.90
27544;DHT22;17996;51.056;3.656;2023-01-26T07:52:40;3.80;99.90
27544;DHT22;17996;51.056;3.656;2023-01-26T07:55:08;3.80;99.90
27544;DHT22;17996;51.056;3.656;2023-01-26T07:57:33;3.90;99.90
27544;DHT22;17996;51.056;3.656;2023-01-26T07:59:59;3.90;99.90
27544;DHT22;17996;51.056;3.656;2023-01-26T08:02:24;4.00;99.90
27544;DHT22;17996;51.056;3.656;2023-01-26T08:04:50;4.20;99.90
27544;DHT22;17996;51.056;3.656;2023-01-26T08:07:16;4.10;99.90
27544;DHT22;17996;51.056;3.656;2023-01-26T08:09:41;4.20;99.90
27544;DHT22;17996;51.056;3.656;2023-01-26T08:12:07;4.20;99.90
27544;DHT22;17996;51.056;3.656;2023-01-26T08:14:33;4.50;99.90
27544;DHT22;17996;51.056;3.656;2023-01-26T08:17:00;4.50;99.90
27544;DHT22;17996;51.056;3.656;2023-01-26T08:19:26;4.40;99.90
27544;DHT22;17996;51.056;3.656;2023-01-26T08:21:51;4.50;99.90
27544;DHT22;17996;51.056;3.656;2023-01-26T08:24:19;4.80;99.90
27544;DHT22;17996;51.056;3.656;2023-01-26T08:26:45;4.60;99.90
27544;DHT22;17996;51.056;3.656;2023-01-26T08:29:11;4.90;99.90
27544;DHT22;17996;51.056;3.656;2023-01-26T08:31:37;4.80;99.90
27544;DHT22;17996;51.056;3.656;2023-01-26T08:34:02;4.90;99.90
27544;DHT22;17996;51.056;3.656;2023-01-26T08:36:29;5.10;99.90
27544;DHT22;17996;51.056;3.656;2023-01-26T08:38:54;5.10;99.90
27544;DHT22;17996;51.056;3.656;2023-01-26T08:41:20;5.10;99.90
27544;DHT22;17996;51.056;3.656;2023-01-26T08:43:46;5.20;99.90
27544;DHT22;17996;51.056;3.656;2023-01-26T08:46:12;5.30;99.90
27544;DHT22;17996;51.056;3.656;2023-01-26T08:48:38;5.30;99.90
27544;DHT22;17996;51.056;3.656;2023-01-26T08:51:05;5.50;99.90
27544;DHT22;17996;51.056;3.656;2023-01-26T08:53:33;5.60;99.90
27544;DHT22;17996;51.056;3.656;2023-01-26T08:56:03;5.50;99.90
27544;DHT22;17996;51.056;3.656;2023-01-26T08:58:29;5.50;99.90
27544;DHT22;17996;51.056;3.656;2023-01-26T09:00:55;5.70;99.90
27544;DHT22;17996;51.056;3.656;2023-01-26T09:03:21;5.70;99.90
27544;DHT22;17996;51.056;3.656;2023-01-26T09:05:47;5.80;99.90
27544;DHT22;17996;51.056;3.656;2023-01-26T09:08:12;5.80;99.90
27544;DHT22;17996;51.056;3.656;2023-01-26T09:10:38;5.70;99.90
27544;DHT22;17996;51.056;3.656;2023-01-26T09:13:04;5.80;99.90
27544;DHT22;17996;51.056;3.656;2023-01-26T09:15:30;5.90;99.90
27544;DHT22;17996;51.056;3.656;2023-01-26T09:17:55;6.00;99.90
27544;DHT22;17996;51.056;3.656;2023-01-26T09:20:21;6.00;99.90
27544;DHT22;17996;51.056;3.656;2023-01-26T09:22:47;6.00;99.90
27544;DHT22;17996;51.056;3.656;2023-01-26T09:25:13;6.20;99.90
27544;DHT22;17996;51.056;3.656;2023-01-26T09:27:39;6.10;99.90
27544;DHT22;17996;51.056;3.656;2023-01-26T09:30:06;6.20;99.90
27544;DHT22;17996;51.056;3.656;2023-01-26T09:32:32;6.20;99.90
27544;DHT22;17996;51.056;3.656;2023-01-26T09:34:58;6.40;99.90
27544;DHT22;17996;51.056;3.656;2023-01-26T09:37:24;6.30;99.90
27544;DHT22;17996;51.056;3.656;2023-01-26T09:39:51;6.30;99.90
27544;DHT22;17996;51.056;3.656;2023-01-26T09:42:44;6.30;99.90
27544;DHT22;17996;51.056;3.656;2023-01-26T09:45:17;6.40;99.90
27544;DHT22;17996;51.056;3.656;2023-01-26T09:48:11;6.40;99.90
27544;DHT22;17996;51.056;3.656;2023-01-26T09:50:51;6.50;99.90
27544;DHT22;17996;51.056;3.656;2023-01-26T09:53:27;6.40;99.90
27544;DHT22;17996;51.056;3.656;2023-01-26T09:55:55;6.40;99.90
27544;DHT22;17996;51.056;3.656;2023-01-26T09:58:36;6.50;99.90
27544;DHT22;17996;51.056;3.656;2023-01-26T10:01:03;6.50;99.90
27544;DHT22;17996;51.056;3.656;2023-01-26T10:03:53;6.60;99.90
27544;DHT22;17996;51.056;3.656;2023-01-26T10:06:24;6.60;99.90
27544;DHT22;17996;51.056;3.656;2023-01-26T10:09:13;6.70;99.90
27544;DHT22;17996;51.056;3.656;2023-01-26T10:11:43;6.60;99.90
27544;DHT22;17996;51.056;3.656;2023-01-26T10:14:15;6.70;99.90
27544;DHT22;17996;51.056;3.656;2023-01-26T10:16:47;6.60;99.90
27544;DHT22;17996;51.056;3.656;2023-01-26T10:19:22;6.80;99.90
27544;DHT22;17996;51.056;3.656;2023-01-26T10:21:56;6.60;99.90
27544;DHT22;17996;51.056;3.656;2023-01-26T10:24:22;6.70;99.90
27544;DHT22;17996;51.056;3.656;2023-01-26T10:26:49;6.60;99.90
27544;DHT22;17996;51.056;3.656;2023-01-26T10:29:17;6.60;99.90
27544;DHT22;17996;51.056;3.656;2023-01-26T10:31:43;6.70;99.90
27544;DHT22;17996;51.056;3.656;2023-01-26T10:34:16;6.60;99.90
27544;DHT22;17996;51.056;3.656;2023-01-26T10:36:45;6.70;99.90
27544;DHT22;17996;51.056;3.656;2023-01-26T10:39:16;6.70;99.90
27544;DHT22;17996;51.056;3.656;2023-01-26T10:44:33;6.80;99.90
27544;DHT22;17996;51.056;3.656;2023-01-26T10:47:06;6.80;99.90
27544;DHT22;17996;51.056;3.656;2023-01-26T10:49:38;6.80;99.90
27544;DHT22;17996;51.056;3.656;2023-01-26T10:54:42;6.70;99.90
27544;DHT22;17996;51.056;3.656;2023-01-26T10:57:21;6.70;99.90
27544;DHT22;17996;51.056;3.656;2023-01-26T10:59:53;6.80;99.90
27544;DHT22;17996;51.056;3.656;2023-01-26T11:02:23;6.80;99.90
27544;DHT22;17996;51.056;3.656;2023-01-26T11:07:41;7.00;99.90
27544;DHT22;17996;51.056;3.656;2023-01-26T11:15:41;7.10;99.90
27544;DHT22;17996;51.056;3.656;2023-01-26T11:42:19;7.50;99.90
27544;DHT22;17996;51.056;3.656;2023-01-26T11:45:04;7.60;99.90
27544;DHT22;17996;51.056;3.656;2023-01-26T11:47:43;7.70;99.90
27544;DHT22;17996;51.056;3.656;2023-01-26T11:50:22;7.80;99.90
27544;DHT22;17996;51.056;3.656;2023-01-26T11:55:50;7.90;99.90
27544;DHT22;17996;51.056;3.656;2023-01-26T12:00:55;7.90;99.90
27544;DHT22;17996;51.056;3.656;2023-01-26T12:03:34;7.70;99.90
27544;DHT22;17996;51.056;3.656;2023-01-26T12:06:11;7.70;99.90
27544;DHT22;17996;51.056;3.656;2023-01-26T12:08:41;7.80;99.90
27544;DHT22;17996;51.056;3.656;2023-01-26T12:11:38;7.70;99.90
27544;DHT22;17996;51.056;3.656;2023-01-26T12:17:25;7.70;99.90
27544;DHT22;17996;51.056;3.656;2023-01-26T12:22:31;7.80;99.90
27544;DHT22;17996;51.056;3.656;2023-01-26T12:25:06;7.80;99.90
27544;DHT22;17996;51.056;3.656;2023-01-26T12:32:58;7.70;99.90
27544;DHT22;17996;51.056;3.656;2023-01-26T12:38:17;8.00;99.90
27544;DHT22;17996;51.056;3.656;2023-01-26T12:41:00;7.90;99.90
27544;DHT22;17996;51.056;3.656;2023-01-26T12:46:08;7.90;99.90
27544;DHT22;17996;51.056;3.656;2023-01-26T12:48:54;7.90;99.90
27544;DHT22;17996;51.056;3.656;2023-01-26T12:51:34;7.80;99.90
27544;DHT22;17996;51.056;3.656;2023-01-26T12:54:21;7.80;99.90
27544;DHT22;17996;51.056;3.656;2023-01-26T12:56:53;7.80;99.90
27544;DHT22;17996;51.056;3.656;2023-01-26T12:59:32;7.80;99.90
27544;DHT22;17996;51.056;3.656;2023-01-26T13:04:42;7.80;99.90
27544;DHT22;17996;51.056;3.656;2023-01-26T13:10:18;8.00;99.90
27544;DHT22;17996;51.056;3.656;2023-01-26T13:13:00;8.10;99.90
27544;DHT22;17996;51.056;3.656;2023-01-26T13:15:45;8.00;99.90
27544;DHT22;17996;51.056;3.656;2023-01-26T13:18:15;8.00;99.90
27544;DHT22;17996;51.056;3.656;2023-01-26T13:20:46;8.00;99.90
27544;DHT22;17996;51.056;3.656;2023-01-26T13:23:39;7.80;99.90
27544;DHT22;17996;51.056;3.656;2023-01-26T13:29:30;7.70;99.90
27544;DHT22;17996;51.056;3.656;2023-01-26T13:34:41;8.00;99.90
27544;DHT22;17996;51.056;3.656;2023-01-26T13:40:04;8.00;99.90
27544;DHT22;17996;51.056;3.656;2023-01-26T13:48:14;8.20;99.90
27544;DHT22;17996;51.056;3.656;2023-01-26T13:50:45;8.20;99.90
27544;DHT22;17996;51.056;3.656;2023-01-26T13:53:59;8.20;99.90
27544;DHT22;17996;51.056;3.656;2023-01-26T13:59:14;8.30;99.90
27544;DHT22;17996;51.056;3.656;2023-01-26T14:01:41;8.20;99.90
27544;DHT22;17996;51.056;3.656;2023-01-26T14:06:42;8.00;99.90
27544;DHT22;17996;51.056;3.656;2023-01-26T14:09:12;8.10;99.90
27544;DHT22;17996;51.056;3.656;2023-01-26T14:11:38;8.10;99.90
27544;DHT22;17996;51.056;3.656;2023-01-26T14:14:04;8.30;99.90
27544;DHT22;17996;51.056;3.656;2023-01-26T14:16:35;8.30;99.90
27544;DHT22;17996;51.056;3.656;2023-01-26T14:19:11;8.30;99.90
27544;DHT22;17996;51.056;3.656;2023-01-26T14:24:15;8.30;99.90
27544;DHT22;17996;51.056;3.656;2023-01-26T14:26:41;8.20;99.90
27544;DHT22;17996;51.056;3.656;2023-01-26T14:29:27;8.30;99.90
27544;DHT22;17996;51.056;3.656;2023-01-26T14:31:56;8.10;99.90
27544;DHT22;17996;51.056;3.656;2023-01-26T14:34:25;8.20;99.90
27544;DHT22;17996;51.056;3.656;2023-01-26T14:37:13;8.20;99.90
27544;DHT22;17996;51.056;3.656;2023-01-26T14:39:39;8.30;99.90
27544;DHT22;17996;51.056;3.656;2023-01-26T14:42:12;8.30;99.90
27544;DHT22;17996;51.056;3.656;2023-01-26T14:44:39;8.20;99.90
27544;DHT22;17996;51.056;3.656;2023-01-26T14:47:24;8.30;99.90
27544;DHT22;17996;51.056;3.656;2023-01-26T14:49:59;8.20;99.90
27544;DHT22;17996;51.056;3.656;2023-01-26T14:52:33;8.30;99.90
27544;DHT22;17996;51.056;3.656;2023-01-26T14:55:12;8.30;99.90
27544;DHT22;17996;51.056;3.656;2023-01-26T14:57:39;8.30;99.90
27544;DHT22;17996;51.056;3.656;2023-01-26T15:00:05;8.30;99.90
27544;DHT22;17996;51.056;3.656;2023-01-26T15:02:35;8.20;99.90
27544;DHT22;17996;51.056;3.656;2023-01-26T15:05:08;8.20;99.90
27544;DHT22;17996;51.056;3.656;2023-01-26T15:07:40;8.20;99.90
27544;DHT22;17996;51.056;3.656;2023-01-26T15:10:27;8.30;99.90
27544;DHT22;17996;51.056;3.656;2023-01-26T15:13:01;8.20;99.90
27544;DHT22;17996;51.056;3.656;2023-01-26T15:15:30;8.10;99.90
27544;DHT22;17996;51.056;3.656;2023-01-26T15:18:19;8.20;99.90
27544;DHT22;17996;51.056;3.656;2023-01-26T15:20:55;8.20;99.90
27544;DHT22;17996;51.056;3.656;2023-01-26T15:23:32;8.20;99.90
27544;DHT22;17996;51.056;3.656;2023-01-26T15:26:06;8.10;99.90
27544;DHT22;17996;51.056;3.656;2023-01-26T15:28:32;8.10;99.90
27544;DHT22;17996;51.056;3.656;2023-01-26T15:30:58;8.10;99.90
27544;DHT22;17996;51.056;3.656;2023-01-26T15:36:25;8.10;99.90
27544;DHT22;17996;51.056;3.656;2023-01-26T15:39:03;8.10;99.90
27544;DHT22;17996;51.056;3.656;2023-01-26T15:41:29;8.10;99.90
27544;DHT22;17996;51.056;3.656;2023-01-26T15:43:56;8.10;99.90
27544;DHT22;17996;51.056;3.656;2023-01-26T15:46:22;8.00;99.90
27544;DHT22;17996;51.056;3.656;2023-01-26T15:48:48;8.10;99.90
27544;DHT22;17996;51.056;3.656;2023-01-26T15:51:14;8.00;99.90
27544;DHT22;17996;51.056;3.656;2023-01-26T15:53:40;8.00;99.90
27544;DHT22;17996;51.056;3.656;2023-01-26T15:56:11;8.00;99.90
27544;DHT22;17996;51.056;3.656;2023-01-26T15:58:37;8.00;99.90
27544;DHT22;17996;51.056;3.656;2023-01-26T16:01:03;7.90;99.90
27544;DHT22;17996;51.056;3.656;2023-01-26T16:03:29;7.90;99.90
27544;DHT22;17996;51.056;3.656;2023-01-26T16:05:55;8.00;99.90
27544;DHT22;17996;51.056;3.656;2023-01-26T16:08:20;7.90;99.90
27544;DHT22;17996;51.056;3.656;2023-01-26T16:10:46;7.90;99.90
27544;DHT22;17996;51.056;3.656;2023-01-26T16:13:14;7.90;99.90
27544;DHT22;17996;51.056;3.656;2023-01-26T16:15:43;7.80;99.90
27544;DHT22;17996;51.056;3.656;2023-01-26T16:18:09;7.80;99.90
27544;DHT22;17996;51.056;3.656;2023-01-26T16:20:38;7.80;99.90
27544;DHT22;17996;51.056;3.656;2023-01-26T16:23:17;7.70;99.90
27544;DHT22;17996;51.056;3.656;2023-01-26T16:25:43;7.80;99.90
27544;DHT22;17996;51.056;3.656;2023-01-26T16:28:09;7.70;99.90
27544;DHT22;17996;51.056;3.656;2023-01-26T16:30:35;7.60;99.90
27544;DHT22;17996;51.056;3.656;2023-01-26T16:33:01;7.60;99.90
27544;DHT22;17996;51.056;3.656;2023-01-26T16:35:26;7.60;99.90
27544;DHT22;17996;51.056;3.656;2023-01-26T16:37:53;7.50;99.90
27544;DHT22;17996;51.056;3.656;2023-01-26T16:40:19;7.50;99.90
27544;DHT22;17996;51.056;3.656;2023-01-26T16:42:50;7.50;99.90
27544;DHT22;17996;51.056;3.656;2023-01-26T16:45:25;7.50;99.90
27544;DHT22;17996;51.056;3.656;2023-01-26T16:47:53;7.40;99.90
27544;DHT22;17996;51.056;3.656;2023-01-26T16:50:20;7.40;99.90
27544;DHT22;17996;51.056;3.656;2023-01-26T16:52:47;7.60;99.90
27544;DHT22;17996;51.056;3.656;2023-01-26T16:55:13;7.40;99.90
27544;DHT22;17996;51.056;3.656;2023-01-26T16:57:44;7.40;99.90
27544;DHT22;17996;51.056;3.656;2023-01-26T17:00:16;7.40;99.90
27544;DHT22;17996;51.056;3.656;2023-01-26T17:02:43;7.40;99.90
27544;DHT22;17996;51.056;3.656;2023-01-26T17:05:16;7.40;99.90
27544;DHT22;17996;51.056;3.656;2023-01-26T17:07:42;7.40;99.90
27544;DHT22;17996;51.056;3.656;2023-01-26T17:10:10;7.40;99.90
27544;DHT22;17996;51.056;3.656;2023-01-26T17:12:35;7.30;99.90
27544;DHT22;17996;51.056;3.656;2023-01-26T17:15:05;7.30;99.90
27544;DHT22;17996;51.056;3.656;2023-01-26T17:17:31;7.30;99.90
27544;DHT22;17996;51.056;3.656;2023-01-26T17:19:59;7.40;99.90
27544;DHT22;17996;51.056;3.656;2023-01-26T17:22:26;7.30;99.90
27544;DHT22;17996;51.056;3.656;2023-01-26T17:24:52;7.40;99.90
27544;DHT22;17996;51.056;3.656;2023-01-26T17:27:17;7.30;99.90
27544;DHT22;17996;51.056;3.656;2023-01-26T17:29:43;7.30;99.90
27544;DHT22;17996;51.056;3.656;2023-01-26T17:32:09;7.30;99.90
27544;DHT22;17996;51.056;3.656;2023-01-26T17:34:35;7.40;99.90
27544;DHT22;17996;51.056;3.656;2023-01-26T17:37:01;7.40;99.90